sensor_id;sensor_type;location;lat;lon;timestamp;temperature;humidity
29003;DHT22;16102;57.138;-2.118;2022-08-19T00:01:52;14.30;1.00
29003;DHT22;16102;57.138;-2.118;2022-08-19T00:04:24;14.20;1.00
29003;DHT22;16102;57.138;-2.118;2022-08-19T00:06:52;14.20;1.00
29003;DHT22;16102;57.138;-2.118;2022-08-19T00:09:21;14.10;1.00
29003;DHT22;16102;57.138;-2.118;2022-08-19T00:11:48;14.10;1.00
29003;DHT22;16102;57.138;-2.118;2022-08-19T00:14:17;14.10;1.00
29003;DHT22;16102;57.138;-2.118;2022-08-19T00:16:45;14.10;1.00
29003;DHT22;16102;57.138;-2.118;2022-08-19T00:19:14;14.10;1.00
29003;DHT22;16102;57.138;-2.118;2022-08-19T00:21:42;14.00;1.00
29003;DHT22;16102;57.138;-2.118;2022-08-19T00:24:11;14.00;1.00
29003;DHT22;16102;57.138;-2.118;2022-08-19T00:26:40;13.90;1.00
29003;DHT22;16102;57.138;-2.118;2022-08-19T00:29:10;13.90;1.00
29003;DHT22;16102;57.138;-2.118;2022-08-19T00:31:38;13.90;1.00
29003;DHT22;16102;57.138;-2.118;2022-08-19T00:34:05;13.80;1.00
29003;DHT22;16102;57.138;-2.118;2022-08-19T00:36:33;13.80;1.00
29003;DHT22;16102;57.138;-2.118;2022-08-19T00:39:00;13.70;1.00
29003;DHT22;16102;57.138;-2.118;2022-08-19T00:41:28;13.60;1.00
29003;DHT22;16102;57.138;-2.118;2022-08-19T00:44:09;13.60;1.00
29003;DHT22;16102;57.138;-2.118;2022-08-19T00:46:40;13.50;1.00
29003;DHT22;16102;57.138;-2.118;2022-08-19T00:51:45;13.40;1.00
29003;DHT22;16102;57.138;-2.118;2022-08-19T00:54:14;13.40;1.00
29003;DHT22;16102;57.138;-2.118;2022-08-19T00:56:42;13.30;1.00
29003;DHT22;16102;57.138;-2.118;2022-08-19T00:59:10;13.30;1.00
29003;DHT22;16102;57.138;-2.118;2022-08-19T01:01:40;13.30;1.00
29003;DHT22;16102;57.138;-2.118;2022-08-19T01:04:08;13.30;1.00
29003;DHT22;16102;57.138;-2.118;2022-08-19T01:06:37;13.30;1.00
29003;DHT22;16102;57.138;-2.118;2022-08-19T01:09:05;13.20;1.00
29003;DHT22;16102;57.138;-2.118;2022-08-19T01:11:35;13.20;1.00
29003;DHT22;16102;57.138;-2.118;2022-08-19T01:14:04;13.20;1.00
29003;DHT22;16102;57.138;-2.118;2022-08-19T01:16:33;13.20;1.00
29003;DHT22;16102;57.138;-2.118;2022-08-19T01:19:01;13.10;1.00
29003;DHT22;16102;57.138;-2.118;2022-08-19T01:21:37;13.10;1.00
29003;DHT22;16102;57.138;-2.118;2022-08-19T01:24:06;13.00;1.00
29003;DHT22;16102;57.138;-2.118;2022-08-19T01:26:41;13.00;1.00
29003;DHT22;16102;57.138;-2.118;2022-08-19T01:29:10;13.00;10.60
29003;DHT22;16102;57.138;-2.118;2022-08-19T01:31:37;12.90;18.60
29003;DHT22;16102;57.138;-2.118;2022-08-19T01:34:06;12.90;30.90
29003;DHT22;16102;57.138;-2.118;2022-08-19T01:36:42;12.90;49.70
29003;DHT22;16102;57.138;-2.118;2022-08-19T01:39:21;12.90;74.30
29003;DHT22;16102;57.138;-2.118;2022-08-19T01:41:49;12.90;92.30
29003;DHT22;16102;57.138;-2.118;2022-08-19T01:44:16;12.90;99.90
29003;DHT22;16102;57.138;-2.118;2022-08-19T01:46:47;12.80;99.90
29003;DHT22;16102;57.138;-2.118;2022-08-19T01:49:17;12.80;99.90
29003;DHT22;16102;57.138;-2.118;2022-08-19T01:51:45;12.70;99.90
29003;DHT22;16102;57.138;-2.118;2022-08-19T01:54:15;12.60;99.90
29003;DHT22;16102;57.138;-2.118;2022-08-19T01:57:05;12.60;99.90
29003;DHT22;16102;57.138;-2.118;2022-08-19T01:59:33;12.60;99.90
29003;DHT22;16102;57.138;-2.118;2022-08-19T02:02:05;12.60;99.90
29003;DHT22;16102;57.138;-2.118;2022-08-19T02:04:34;12.60;99.90
29003;DHT22;16102;57.138;-2.118;2022-08-19T02:07:02;12.60;99.90
29003;DHT22;16102;57.138;-2.118;2022-08-19T02:09:31;12.50;99.90
29003;DHT22;16102;57.138;-2.118;2022-08-19T02:11:58;12.50;99.90
29003;DHT22;16102;57.138;-2.118;2022-08-19T02:14:25;12.50;99.90
29003;DHT22;16102;57.138;-2.118;2022-08-19T02:16:52;12.50;99.90
29003;DHT22;16102;57.138;-2.118;2022-08-19T02:19:19;12.50;99.90
29003;DHT22;16102;57.138;-2.118;2022-08-19T02:21:46;12.50;99.90
29003;DHT22;16102;57.138;-2.118;2022-08-19T02:24:13;12.50;99.90
29003;DHT22;16102;57.138;-2.118;2022-08-19T02:26:40;12.50;99.90
29003;DHT22;16102;57.138;-2.118;2022-08-19T02:29:07;12.50;99.90
29003;DHT22;16102;57.138;-2.118;2022-08-19T02:31:34;12.50;99.90
29003;DHT22;16102;57.138;-2.118;2022-08-19T02:34:01;12.50;99.90
29003;DHT22;16102;57.138;-2.118;2022-08-19T02:36:28;12.50;99.90
29003;DHT22;16102;57.138;-2.118;2022-08-19T02:38:57;12.50;99.90
29003;DHT22;16102;57.138;-2.118;2022-08-19T02:41:32;12.50;99.90
29003;DHT22;16102;57.138;-2.118;2022-08-19T02:44:01;12.50;99.90
29003;DHT22;16102;57.138;-2.118;2022-08-19T02:46:51;12.50;99.90
29003;DHT22;16102;57.138;-2.118;2022-08-19T02:49:19;12.50;99.90
29003;DHT22;16102;57.138;-2.118;2022-08-19T02:51:46;12.50;99.90
29003;DHT22;16102;57.138;-2.118;2022-08-19T02:54:14;12.50;99.90
29003;DHT22;16102;57.138;-2.118;2022-08-19T02:56:43;12.50;99.90
29003;DHT22;16102;57.138;-2.118;2022-08-19T02:59:10;12.40;99.90
29003;DHT22;16102;57.138;-2.118;2022-08-19T03:01:40;12.40;99.90
29003;DHT22;16102;57.138;-2.118;2022-08-19T03:04:11;12.40;99.90
29003;DHT22;16102;57.138;-2.118;2022-08-19T03:06:40;12.40;99.90
29003;DHT22;16102;57.138;-2.118;2022-08-19T03:09:08;12.40;99.90
29003;DHT22;16102;57.138;-2.118;2022-08-19T03:11:36;12.30;99.90
29003;DHT22;16102;57.138;-2.118;2022-08-19T03:14:05;12.30;99.90
29003;DHT22;16102;57.138;-2.118;2022-08-19T03:16:41;12.20;99.90
29003;DHT22;16102;57.138;-2.118;2022-08-19T03:19:08;12.20;99.90
29003;DHT22;16102;57.138;-2.118;2022-08-19T03:21:35;12.20;99.90
29003;DHT22;16102;57.138;-2.118;2022-08-19T03:24:06;12.20;99.90
29003;DHT22;16102;57.138;-2.118;2022-08-19T03:26:38;12.20;99.90
29003;DHT22;16102;57.138;-2.118;2022-08-19T03:29:06;12.10;99.90
29003;DHT22;16102;57.138;-2.118;2022-08-19T03:31:36;12.10;99.90
29003;DHT22;16102;57.138;-2.118;2022-08-19T03:34:24;12.10;99.90
29003;DHT22;16102;57.138;-2.118;2022-08-19T03:36:54;12.10;99.90
29003;DHT22;16102;57.138;-2.118;2022-08-19T03:39:23;12.10;99.90
29003;DHT22;16102;57.138;-2.118;2022-08-19T03:41:52;12.10;99.90
29003;DHT22;16102;57.138;-2.118;2022-08-19T03:44:39;12.10;99.90
29003;DHT22;16102;57.138;-2.118;2022-08-19T03:47:08;12.10;99.90
29003;DHT22;16102;57.138;-2.118;2022-08-19T03:49:35;12.10;99.90
29003;DHT22;16102;57.138;-2.118;2022-08-19T03:52:04;12.10;99.90
29003;DHT22;16102;57.138;-2.118;2022-08-19T03:54:34;12.10;99.90
29003;DHT22;16102;57.138;-2.118;2022-08-19T03:57:02;12.10;99.90
29003;DHT22;16102;57.138;-2.118;2022-08-19T03:59:32;12.10;99.90
29003;DHT22;16102;57.138;-2.118;2022-08-19T04:02:02;12.10;99.90
29003;DHT22;16102;57.138;-2.118;2022-08-19T04:04:29;12.10;99.90
29003;DHT22;16102;57.138;-2.118;2022-08-19T04:06:58;12.10;99.90
29003;DHT22;16102;57.138;-2.118;2022-08-19T04:09:25;12.10;99.90
29003;DHT22;16102;57.138;-2.118;2022-08-19T04:11:54;12.10;99.90
29003;DHT22;16102;57.138;-2.118;2022-08-19T04:14:26;12.10;99.90
29003;DHT22;16102;57.138;-2.118;2022-08-19T04:16:57;12.10;99.90
29003;DHT22;16102;57.138;-2.118;2022-08-19T04:19:25;12.10;99.90
29003;DHT22;16102;57.138;-2.118;2022-08-19T04:21:54;12.20;99.90
29003;DHT22;16102;57.138;-2.118;2022-08-19T04:24:22;12.20;99.90
29003;DHT22;16102;57.138;-2.118;2022-08-19T04:26:50;12.20;99.90
29003;DHT22;16102;57.138;-2.118;2022-08-19T04:29:20;12.30;99.90
29003;DHT22;16102;57.138;-2.118;2022-08-19T04:31:49;12.30;99.90
29003;DHT22;16102;57.138;-2.118;2022-08-19T04:34:18;12.30;99.90
29003;DHT22;16102;57.138;-2.118;2022-08-19T04:36:50;12.30;99.90
29003;DHT22;16102;57.138;-2.118;2022-08-19T04:39:21;12.30;99.90
29003;DHT22;16102;57.138;-2.118;2022-08-19T04:41:48;12.20;99.90
29003;DHT22;16102;57.138;-2.118;2022-08-19T04:44:35;12.20;99.90
29003;DHT22;16102;57.138;-2.118;2022-08-19T04:47:12;12.10;1.00
29003;DHT22;16102;57.138;-2.118;2022-08-19T04:49:39;12.10;1.00
29003;DHT22;16102;57.138;-2.118;2022-08-19T04:52:06;12.10;1.00
29003;DHT22;16102;57.138;-2.118;2022-08-19T04:54:35;12.10;1.00
29003;DHT22;16102;57.138;-2.118;2022-08-19T04:57:06;12.10;1.00
29003;DHT22;16102;57.138;-2.118;2022-08-19T04:59:37;12.10;1.00
29003;DHT22;16102;57.138;-2.118;2022-08-19T05:02:06;12.10;1.00
29003;DHT22;16102;57.138;-2.118;2022-08-19T05:04:33;12.10;1.00
29003;DHT22;16102;57.138;-2.118;2022-08-19T05:07:01;12.10;1.00
29003;DHT22;16102;57.138;-2.118;2022-08-19T05:09:29;12.10;1.00
29003;DHT22;16102;57.138;-2.118;2022-08-19T05:12:17;12.10;1.00
29003;DHT22;16102;57.138;-2.118;2022-08-19T05:14:45;12.10;1.00
29003;DHT22;16102;57.138;-2.118;2022-08-19T05:17:14;12.10;1.00
29003;DHT22;16102;57.138;-2.118;2022-08-19T05:20:03;12.10;1.00
29003;DHT22;16102;57.138;-2.118;2022-08-19T05:22:49;12.00;1.00
29003;DHT22;16102;57.138;-2.118;2022-08-19T05:25:18;12.10;14.30
29003;DHT22;16102;57.138;-2.118;2022-08-19T05:27:46;12.10;18.50
29003;DHT22;16102;57.138;-2.118;2022-08-19T05:30:15;12.10;18.70
29003;DHT22;16102;57.138;-2.118;2022-08-19T05:32:42;12.20;14.10
29003;DHT22;16102;57.138;-2.118;2022-08-19T05:35:10;12.20;3.10
29003;DHT22;16102;57.138;-2.118;2022-08-19T05:37:39;12.20;1.00
29003;DHT22;16102;57.138;-2.118;2022-08-19T05:40:09;12.20;1.00
29003;DHT22;16102;57.138;-2.118;2022-08-19T05:42:37;12.20;11.20
29003;DHT22;16102;57.138;-2.118;2022-08-19T05:45:05;12.20;20.80
29003;DHT22;16102;57.138;-2.118;2022-08-19T05:47:32;12.30;8.80
29003;DHT22;16102;57.138;-2.118;2022-08-19T05:49:59;12.40;1.00
29003;DHT22;16102;57.138;-2.118;2022-08-19T05:52:31;12.40;1.00
29003;DHT22;16102;57.138;-2.118;2022-08-19T05:54:59;12.50;1.00
29003;DHT22;16102;57.138;-2.118;2022-08-19T05:57:26;12.60;1.00
29003;DHT22;16102;57.138;-2.118;2022-08-19T05:59:56;12.70;1.00
29003;DHT22;16102;57.138;-2.118;2022-08-19T06:02:30;12.70;1.00
29003;DHT22;16102;57.138;-2.118;2022-08-19T06:04:57;12.80;1.00
29003;DHT22;16102;57.138;-2.118;2022-08-19T06:07:24;12.80;1.00
29003;DHT22;16102;57.138;-2.118;2022-08-19T06:09:52;12.80;1.00
29003;DHT22;16102;57.138;-2.118;2022-08-19T06:12:31;12.80;1.00
29003;DHT22;16102;57.138;-2.118;2022-08-19T06:15:12;12.80;1.00
29003;DHT22;16102;57.138;-2.118;2022-08-19T06:17:40;12.80;1.00
29003;DHT22;16102;57.138;-2.118;2022-08-19T06:20:11;12.70;1.00
29003;DHT22;16102;57.138;-2.118;2022-08-19T06:22:42;12.80;1.00
29003;DHT22;16102;57.138;-2.118;2022-08-19T06:25:10;12.80;1.00
29003;DHT22;16102;57.138;-2.118;2022-08-19T06:27:38;12.80;1.00
29003;DHT22;16102;57.138;-2.118;2022-08-19T06:30:25;12.80;1.00
29003;DHT22;16102;57.138;-2.118;2022-08-19T06:32:53;12.80;1.00
29003;DHT22;16102;57.138;-2.118;2022-08-19T06:35:20;12.90;1.00
29003;DHT22;16102;57.138;-2.118;2022-08-19T06:37:47;12.90;1.00
29003;DHT22;16102;57.138;-2.118;2022-08-19T06:40:15;12.90;1.00
29003;DHT22;16102;57.138;-2.118;2022-08-19T06:42:42;13.00;1.00
29003;DHT22;16102;57.138;-2.118;2022-08-19T06:45:21;13.00;1.00
29003;DHT22;16102;57.138;-2.118;2022-08-19T06:47:51;13.10;1.00
29003;DHT22;16102;57.138;-2.118;2022-08-19T06:50:24;13.10;1.00
29003;DHT22;16102;57.138;-2.118;2022-08-19T06:52:51;13.10;1.00
29003;DHT22;16102;57.138;-2.118;2022-08-19T06:55:19;13.20;1.00
29003;DHT22;16102;57.138;-2.118;2022-08-19T06:57:46;13.20;1.00
29003;DHT22;16102;57.138;-2.118;2022-08-19T07:00:15;13.30;1.00
29003;DHT22;16102;57.138;-2.118;2022-08-19T07:02:43;13.30;1.00
29003;DHT22;16102;57.138;-2.118;2022-08-19T07:05:18;13.40;1.00
29003;DHT22;16102;57.138;-2.118;2022-08-19T07:07:46;13.40;1.00
29003;DHT22;16102;57.138;-2.118;2022-08-19T07:10:13;13.40;1.00
29003;DHT22;16102;57.138;-2.118;2022-08-19T07:12:40;13.50;1.00
29003;DHT22;16102;57.138;-2.118;2022-08-19T07:15:08;13.60;1.00
29003;DHT22;16102;57.138;-2.118;2022-08-19T07:17:38;13.60;1.00
29003;DHT22;16102;57.138;-2.118;2022-08-19T07:20:08;13.60;1.00
29003;DHT22;16102;57.138;-2.118;2022-08-19T07:22:37;13.70;99.90
29003;DHT22;16102;57.138;-2.118;2022-08-19T07:25:06;13.80;99.90
29003;DHT22;16102;57.138;-2.118;2022-08-19T07:27:34;13.80;99.90
29003;DHT22;16102;57.138;-2.118;2022-08-19T07:30:03;13.90;99.90
29003;DHT22;16102;57.138;-2.118;2022-08-19T07:32:31;13.90;99.90
29003;DHT22;16102;57.138;-2.118;2022-08-19T07:34:59;14.00;99.90
29003;DHT22;16102;57.138;-2.118;2022-08-19T07:37:27;14.00;99.90
29003;DHT22;16102;57.138;-2.118;2022-08-19T07:39:59;14.10;99.90
29003;DHT22;16102;57.138;-2.118;2022-08-19T07:42:27;14.10;99.90
29003;DHT22;16102;57.138;-2.118;2022-08-19T07:44:57;14.20;99.90
29003;DHT22;16102;57.138;-2.118;2022-08-19T07:47:25;14.20;99.90
29003;DHT22;16102;57.138;-2.118;2022-08-19T07:50:14;14.30;99.90
29003;DHT22;16102;57.138;-2.118;2022-08-19T07:52:41;14.30;99.90
29003;DHT22;16102;57.138;-2.118;2022-08-19T07:55:15;14.40;99.90
29003;DHT22;16102;57.138;-2.118;2022-08-19T07:58:02;14.50;99.90
29003;DHT22;16102;57.138;-2.118;2022-08-19T08:00:31;14.60;99.90
29003;DHT22;16102;57.138;-2.118;2022-08-19T08:02:59;14.60;99.90
29003;DHT22;16102;57.138;-2.118;2022-08-19T08:05:26;14.60;99.90
29003;DHT22;16102;57.138;-2.118;2022-08-19T08:08:11;14.70;99.90
29003;DHT22;16102;57.138;-2.118;2022-08-19T08:11:16;14.80;99.90
29003;DHT22;16102;57.138;-2.118;2022-08-19T08:13:46;14.90;99.90
29003;DHT22;16102;57.138;-2.118;2022-08-19T08:16:33;14.90;99.90
29003;DHT22;16102;57.138;-2.118;2022-08-19T08:19:05;15.00;92.40
29003;DHT22;16102;57.138;-2.118;2022-08-19T08:21:47;15.10;52.40
29003;DHT22;16102;57.138;-2.118;2022-08-19T08:24:14;15.20;23.90
29003;DHT22;16102;57.138;-2.118;2022-08-19T08:26:42;15.30;1.00
29003;DHT22;16102;57.138;-2.118;2022-08-19T08:29:13;15.30;1.00
29003;DHT22;16102;57.138;-2.118;2022-08-19T08:31:43;15.30;1.00
29003;DHT22;16102;57.138;-2.118;2022-08-19T08:34:13;15.30;1.00
29003;DHT22;16102;57.138;-2.118;2022-08-19T08:36:44;15.30;1.00
29003;DHT22;16102;57.138;-2.118;2022-08-19T08:39:15;15.30;1.00
29003;DHT22;16102;57.138;-2.118;2022-08-19T08:47:15;15.50;1.00
29003;DHT22;16102;57.138;-2.118;2022-08-19T08:49:58;15.50;1.00
29003;DHT22;16102;57.138;-2.118;2022-08-19T08:52:29;15.60;1.00
29003;DHT22;16102;57.138;-2.118;2022-08-19T08:55:03;15.60;1.00
29003;DHT22;16102;57.138;-2.118;2022-08-19T09:00:37;15.70;1.00
29003;DHT22;16102;57.138;-2.118;2022-08-19T09:09:10;15.80;1.00
29003;DHT22;16102;57.138;-2.118;2022-08-19T09:12:01;15.80;1.00
29003;DHT22;16102;57.138;-2.118;2022-08-19T09:17:34;15.90;1.00
29003;DHT22;16102;57.138;-2.118;2022-08-19T09:20:18;16.00;1.00
29003;DHT22;16102;57.138;-2.118;2022-08-19T09:22:46;16.10;1.00
29003;DHT22;16102;57.138;-2.118;2022-08-19T09:25:19;16.20;1.00
29003;DHT22;16102;57.138;-2.118;2022-08-19T09:27:53;16.20;1.00
29003;DHT22;16102;57.138;-2.118;2022-08-19T09:30:31;16.20;1.00
29003;DHT22;16102;57.138;-2.118;2022-08-19T09:33:00;16.20;1.00
29003;DHT22;16102;57.138;-2.118;2022-08-19T09:35:29;16.20;1.00
29003;DHT22;16102;57.138;-2.118;2022-08-19T09:37:57;16.20;1.00
29003;DHT22;16102;57.138;-2.118;2022-08-19T09:40:27;16.30;1.00
29003;DHT22;16102;57.138;-2.118;2022-08-19T09:42:56;16.30;1.00
29003;DHT22;16102;57.138;-2.118;2022-08-19T09:45:24;16.40;1.00
29003;DHT22;16102;57.138;-2.118;2022-08-19T09:47:52;16.40;1.00
29003;DHT22;16102;57.138;-2.118;2022-08-19T09:50:22;16.50;1.00
29003;DHT22;16102;57.138;-2.118;2022-08-19T09:52:50;16.60;1.00
29003;DHT22;16102;57.138;-2.118;2022-08-19T09:55:24;16.80;1.00
29003;DHT22;16102;57.138;-2.118;2022-08-19T09:58:00;17.00;1.00
29003;DHT22;16102;57.138;-2.118;2022-08-19T10:00:28;17.10;1.00
29003;DHT22;16102;57.138;-2.118;2022-08-19T10:02:55;17.40;1.00
29003;DHT22;16102;57.138;-2.118;2022-08-19T10:05:23;17.50;1.00
29003;DHT22;16102;57.138;-2.118;2022-08-19T10:08:09;17.40;1.00
29003;DHT22;16102;57.138;-2.118;2022-08-19T10:10:41;17.30;1.00
29003;DHT22;16102;57.138;-2.118;2022-08-19T10:13:14;17.20;1.00
29003;DHT22;16102;57.138;-2.118;2022-08-19T10:15:42;17.00;1.00
29003;DHT22;16102;57.138;-2.118;2022-08-19T10:18:14;17.10;1.00
29003;DHT22;16102;57.138;-2.118;2022-08-19T10:20:48;17.20;1.00
29003;DHT22;16102;57.138;-2.118;2022-08-19T10:23:19;17.20;1.00
29003;DHT22;16102;57.138;-2.118;2022-08-19T10:25:47;17.40;1.00
29003;DHT22;16102;57.138;-2.118;2022-08-19T10:28:14;17.50;1.00
29003;DHT22;16102;57.138;-2.118;2022-08-19T10:30:45;17.60;1.00
29003;DHT22;16102;57.138;-2.118;2022-08-19T10:33:12;17.80;1.00
29003;DHT22;16102;57.138;-2.118;2022-08-19T10:35:40;17.80;1.00
29003;DHT22;16102;57.138;-2.118;2022-08-19T10:38:23;18.00;99.90
29003;DHT22;16102;57.138;-2.118;2022-08-19T10:41:05;18.20;99.90
29003;DHT22;16102;57.138;-2.118;2022-08-19T10:43:33;18.10;99.90
29003;DHT22;16102;57.138;-2.118;2022-08-19T10:46:06;18.20;99.90
29003;DHT22;16102;57.138;-2.118;2022-08-19T10:48:40;18.30;99.90
29003;DHT22;16102;57.138;-2.118;2022-08-19T10:51:08;18.30;99.90
29003;DHT22;16102;57.138;-2.118;2022-08-19T10:53:54;18.50;99.90
29003;DHT22;16102;57.138;-2.118;2022-08-19T10:56:22;18.80;99.90
29003;DHT22;16102;57.138;-2.118;2022-08-19T10:59:08;19.00;99.90
29003;DHT22;16102;57.138;-2.118;2022-08-19T11:01:35;19.20;99.90
29003;DHT22;16102;57.138;-2.118;2022-08-19T11:04:04;19.40;99.90
29003;DHT22;16102;57.138;-2.118;2022-08-19T11:06:32;19.50;99.90
29003;DHT22;16102;57.138;-2.118;2022-08-19T11:08:59;19.60;99.90
29003;DHT22;16102;57.138;-2.118;2022-08-19T11:11:27;19.20;99.90
29003;DHT22;16102;57.138;-2.118;2022-08-19T11:13:55;19.10;99.90
29003;DHT22;16102;57.138;-2.118;2022-08-19T11:16:24;18.70;99.90
29003;DHT22;16102;57.138;-2.118;2022-08-19T11:18:57;18.70;99.90
29003;DHT22;16102;57.138;-2.118;2022-08-19T11:21:33;18.70;99.90
29003;DHT22;16102;57.138;-2.118;2022-08-19T11:24:05;18.70;99.90
29003;DHT22;16102;57.138;-2.118;2022-08-19T11:26:33;18.80;99.90
29003;DHT22;16102;57.138;-2.118;2022-08-19T11:29:03;18.90;99.90
29003;DHT22;16102;57.138;-2.118;2022-08-19T11:31:33;19.00;99.90
29003;DHT22;16102;57.138;-2.118;2022-08-19T11:34:04;19.40;99.90
29003;DHT22;16102;57.138;-2.118;2022-08-19T11:36:32;19.20;99.90
29003;DHT22;16102;57.138;-2.118;2022-08-19T11:39:00;19.40;99.90
29003;DHT22;16102;57.138;-2.118;2022-08-19T11:41:27;19.50;99.90
29003;DHT22;16102;57.138;-2.118;2022-08-19T11:43:54;19.50;99.90
29003;DHT22;16102;57.138;-2.118;2022-08-19T11:46:23;19.60;99.90
29003;DHT22;16102;57.138;-2.118;2022-08-19T11:48:51;20.10;99.90
29003;DHT22;16102;57.138;-2.118;2022-08-19T11:51:21;20.10;99.90
29003;DHT22;16102;57.138;-2.118;2022-08-19T11:53:49;20.20;99.90
29003;DHT22;16102;57.138;-2.118;2022-08-19T11:56:18;19.60;99.90
29003;DHT22;16102;57.138;-2.118;2022-08-19T11:58:45;19.50;99.90
29003;DHT22;16102;57.138;-2.118;2022-08-19T18:16:16;19.50;99.90
29003;DHT22;16102;57.138;-2.118;2022-08-19T18:18:44;19.50;99.90
29003;DHT22;16102;57.138;-2.118;2022-08-19T18:21:11;19.80;99.90
29003;DHT22;16102;57.138;-2.118;2022-08-19T18:23:38;19.80;99.90
29003;DHT22;16102;57.138;-2.118;2022-08-19T18:26:11;19.90;99.90
29003;DHT22;16102;57.138;-2.118;2022-08-19T18:28:38;19.80;99.90
29003;DHT22;16102;57.138;-2.118;2022-08-19T18:31:16;19.80;99.90
29003;DHT22;16102;57.138;-2.118;2022-08-19T18:33:43;19.90;99.90
29003;DHT22;16102;57.138;-2.118;2022-08-19T18:36:11;19.80;99.90
29003;DHT22;16102;57.138;-2.118;2022-08-19T18:38:38;19.60;99.90
29003;DHT22;16102;57.138;-2.118;2022-08-19T18:41:23;19.60;99.90
29003;DHT22;16102;57.138;-2.118;2022-08-19T18:44:09;19.50;99.90
